createdAt,value
2023-04-04T00:01:16.228Z,54181.06
2023-04-04T00:03:45.982Z,54185.06
2023-04-04T00:06:14.445Z,54222.84
2023-04-04T00:08:44.493Z,54218.84
2023-04-04T00:11:13.895Z,54226.81
2023-04-04T00:13:42.931Z,54212.88
2023-04-04T00:16:11.734Z,54224.81
2023-04-04T00:18:40.045Z,54202.94
2023-04-04T00:21:09.554Z,54254.66
2023-04-04T00:23:38.010Z,54218.84
2023-04-04T00:26:09.818Z,54252.66
2023-04-04T00:28:39.064Z,54302.38
2023-04-04T00:31:07.759Z,54270.56
2023-04-04T00:33:36.908Z,54306.34
2023-04-04T00:36:05.728Z,54302.38
2023-04-04T00:38:34.279Z,54308.34
2023-04-04T00:41:02.712Z,54286.47
2023-04-04T00:43:32.687Z,54294.41
2023-04-04T00:46:01.044Z,54274.53
2023-04-04T00:48:29.857Z,54318.28
2023-04-04T00:50:58.262Z,54328.22
2023-04-04T00:53:26.570Z,54330.22
2023-04-04T00:55:55.160Z,54346.13
2023-04-04T00:58:23.735Z,54290.44
2023-04-04T01:00:53.715Z,54308.34
2023-04-04T01:03:22.362Z,54294.41
2023-04-04T01:05:50.807Z,54322.25
2023-04-04T01:08:23.800Z,54304.38
2023-04-04T01:10:53.960Z,54308.34
2023-04-04T01:13:23.270Z,54330.22
2023-04-04T01:15:54.653Z,54302.38
2023-04-04T01:18:25.272Z,54330.22
2023-04-04T01:21:00.423Z,54373.97
2023-04-04T01:23:37.707Z,54381.91
2023-04-04T01:26:09.621Z,54377.94
2023-04-04T01:28:39.702Z,54348.13
2023-04-04T01:31:15.804Z,54358.06
2023-04-04T01:33:54.134Z,54362.03
2023-04-04T01:36:31.391Z,54377.94
2023-04-04T01:39:10.063Z,54350.09
2023-04-04T01:41:41.137Z,54368.00
2023-04-04T01:44:11.137Z,54395.84
2023-04-04T01:46:40.165Z,54371.97
2023-04-04T01:49:10.957Z,54401.81
2023-04-04T01:51:41.472Z,54405.78
2023-04-04T01:54:10.827Z,54429.66
2023-04-04T01:56:40.585Z,54401.81
2023-04-04T01:59:09.186Z,54405.78
2023-04-04T02:01:37.652Z,54417.72
2023-04-04T02:04:07.371Z,54437.59
2023-04-04T02:06:36.285Z,54425.66
2023-04-04T02:09:05.629Z,54431.63
2023-04-04T02:11:34.457Z,54433.63
2023-04-04T02:14:04.219Z,54409.75
2023-04-04T02:16:32.569Z,54473.41
2023-04-04T02:19:01.267Z,54461.47
2023-04-04T02:21:29.670Z,54445.56
2023-04-04T02:23:58.046Z,54463.44
2023-04-04T02:26:26.453Z,54491.28
2023-04-04T02:28:55.039Z,54463.44
2023-04-04T02:31:25.487Z,54431.63
2023-04-04T02:33:54.673Z,54459.47
2023-04-04T02:36:26.078Z,54459.47
2023-04-04T02:38:57.318Z,54457.47
2023-04-04T02:41:28.008Z,54449.53
2023-04-04T02:43:56.391Z,54427.66
2023-04-04T02:46:26.443Z,54443.56
2023-04-04T02:49:01.545Z,54423.69
2023-04-04T02:51:31.289Z,54451.53
2023-04-04T02:54:00.389Z,54455.50
2023-04-04T02:56:37.830Z,54437.59
2023-04-04T02:59:06.542Z,54443.56
2023-04-04T03:01:36.415Z,54449.53
2023-04-04T03:04:07.232Z,54447.53
2023-04-04T03:06:37.799Z,54441.56
2023-04-04T03:09:06.210Z,54449.53
2023-04-04T03:11:34.703Z,54467.44
2023-04-04T03:14:03.740Z,54445.56
2023-04-04T03:16:38.815Z,54491.28
2023-04-04T03:19:08.252Z,54459.47
2023-04-04T03:21:36.897Z,54489.31
2023-04-04T03:24:05.859Z,54505.22
2023-04-04T03:26:34.276Z,54479.34
2023-04-04T03:29:04.371Z,54429.66
2023-04-04T03:31:32.875Z,54499.25
2023-04-04T03:34:04.481Z,54481.34
2023-04-04T03:36:33.008Z,54501.22
2023-04-04T03:39:01.589Z,54455.50
2023-04-04T03:41:30.473Z,54461.47
2023-04-04T03:43:59.038Z,54485.31
2023-04-04T03:46:27.522Z,54515.16
2023-04-04T03:48:56.674Z,54487.31
2023-04-04T03:51:27.472Z,54477.38
2023-04-04T03:53:56.570Z,54481.34
2023-04-04T03:56:24.998Z,54479.34
2023-04-04T03:58:56.001Z,54527.09
2023-04-04T04:01:24.691Z,54525.09
2023-04-04T04:03:53.252Z,54537.03
2023-04-04T04:06:21.729Z,54568.84
2023-04-04T04:08:52.081Z,54529.06
2023-04-04T04:11:20.732Z,54570.84
2023-04-04T04:13:49.247Z,54533.06
2023-04-04T04:16:17.995Z,54552.94
2023-04-04T04:18:47.094Z,54513.16
2023-04-04T04:21:22.678Z,54535.03
2023-04-04T04:23:52.868Z,54576.81
2023-04-04T04:26:21.359Z,54539.03
2023-04-04T04:28:49.814Z,54543.00
2023-04-04T04:31:23.750Z,54521.13
2023-04-04T04:33:54.003Z,54543.00
2023-04-04T04:36:27.483Z,54562.88
2023-04-04T04:39:05.594Z,54552.94
2023-04-04T04:41:38.851Z,54550.94
2023-04-04T04:44:07.947Z,54596.69
2023-04-04T04:46:36.679Z,54548.97
2023-04-04T04:49:11.946Z,54600.66
2023-04-04T04:51:40.464Z,54558.91
2023-04-04T04:54:11.302Z,54552.94
2023-04-04T04:56:40.985Z,54612.59
2023-04-04T04:59:15.843Z,54566.84
2023-04-04T05:01:46.185Z,54564.88
2023-04-04T05:04:17.707Z,54580.78
2023-04-04T05:06:59.199Z,54584.75
2023-04-04T05:09:29.904Z,54612.59
2023-04-04T05:11:58.820Z,54598.69
2023-04-04T05:14:37.673Z,54586.75
2023-04-04T05:17:06.733Z,54580.78
2023-04-04T05:19:36.416Z,54620.56
2023-04-04T05:22:05.998Z,54660.31
2023-04-04T05:24:44.137Z,54640.44
2023-04-04T05:27:16.302Z,54658.34
2023-04-04T05:29:49.586Z,54632.50
2023-04-04T05:32:18.021Z,54606.63
2023-04-04T05:34:54.645Z,54600.66
2023-04-04T05:37:23.881Z,54594.69
2023-04-04T05:39:55.272Z,54576.81
2023-04-04T05:42:24.246Z,54612.59
2023-04-04T05:44:56.373Z,54632.50
2023-04-04T05:47:26.131Z,54642.44
2023-04-04T05:49:54.643Z,54708.06
2023-04-04T05:52:23.228Z,54692.16
2023-04-04T05:54:52.412Z,54712.03
2023-04-04T05:57:29.876Z,54718.00
2023-04-04T06:00:00.268Z,54731.94
2023-04-04T06:02:29.868Z,54737.88
2023-04-04T06:05:03.364Z,54755.78
2023-04-04T06:07:37.441Z,54755.78
2023-04-04T06:10:07.485Z,54777.66
2023-04-04T06:12:38.629Z,54733.91
2023-04-04T06:15:11.252Z,54725.97
2023-04-04T06:17:41.198Z,54749.81
2023-04-04T06:20:11.017Z,54729.94
2023-04-04T06:22:39.456Z,54745.84
2023-04-04T06:25:11.691Z,54763.75
2023-04-04T06:27:42.568Z,54753.81
2023-04-04T06:30:12.253Z,54743.84
2023-04-04T06:32:41.288Z,54739.88
2023-04-04T06:35:12.803Z,54694.13
2023-04-04T06:37:46.031Z,54686.19
2023-04-04T06:40:21.270Z,54714.03
2023-04-04T06:42:52.441Z,54672.25
2023-04-04T06:45:23.663Z,54670.28
2023-04-04T06:47:53.687Z,54725.97
2023-04-04T06:50:23.380Z,54690.16
2023-04-04T06:52:52.854Z,54648.41
2023-04-04T06:55:21.339Z,54652.38
2023-04-04T06:57:51.621Z,54646.41
2023-04-04T07:00:20.518Z,54640.44
2023-04-04T07:02:49.357Z,54636.47
2023-04-04T07:05:19.072Z,54638.44
2023-04-04T07:07:47.863Z,54630.50
2023-04-04T07:10:16.454Z,54620.56
2023-04-04T07:12:44.877Z,54632.50
2023-04-04T07:15:14.951Z,54564.88
2023-04-04T07:17:43.488Z,54519.13
2023-04-04T07:20:12.355Z,54626.53
2023-04-04T07:22:41.495Z,54594.69
2023-04-04T07:25:10.844Z,54560.91
2023-04-04T07:27:40.703Z,54543.00
2023-04-04T07:30:10.241Z,54493.28
2023-04-04T07:32:40.681Z,54465.44
2023-04-04T07:35:09.769Z,54405.78
2023-04-04T07:37:38.961Z,54433.63
2023-04-04T07:40:09.591Z,54373.97
2023-04-04T07:42:38.180Z,54373.97
2023-04-04T07:45:07.289Z,54366.00
2023-04-04T07:47:36.234Z,54290.44
2023-04-04T07:50:06.953Z,54318.28
2023-04-04T07:52:35.830Z,54314.31
2023-04-04T07:55:05.914Z,54274.53
2023-04-04T07:57:34.345Z,54240.72
2023-04-04T08:00:04.364Z,54276.53
2023-04-04T08:02:42.047Z,54212.88
2023-04-04T08:05:12.146Z,54210.91
2023-04-04T08:07:40.401Z,54206.94
2023-04-04T08:10:10.730Z,54179.09
2023-04-04T08:12:39.777Z,54185.06
2023-04-04T08:15:09.129Z,54179.09
2023-04-04T08:17:38.414Z,54131.38
2023-04-04T08:20:07.914Z,54143.28
2023-04-04T08:22:37.704Z,54113.47
2023-04-04T08:25:07.137Z,54077.69
2023-04-04T08:27:35.489Z,54071.72
2023-04-04T08:30:04.959Z,54075.69
2023-04-04T08:32:33.466Z,54075.69
2023-04-04T08:35:02.002Z,54022.00
2023-04-04T08:37:31.164Z,54035.91
2023-04-04T08:40:01.806Z,54039.91
2023-04-04T08:42:33.854Z,54025.97
2023-04-04T08:45:04.578Z,54024.00
2023-04-04T08:47:35.890Z,54020.00
2023-04-04T08:50:06.588Z,53978.25
2023-04-04T08:52:35.903Z,53984.22
2023-04-04T08:55:06.832Z,53994.16
2023-04-04T08:57:35.436Z,53988.19
2023-04-04T09:00:06.452Z,53940.47
2023-04-04T09:02:38.866Z,53946.44
2023-04-04T09:05:10.101Z,53976.28
2023-04-04T09:07:39.884Z,53982.25
2023-04-04T09:10:12.455Z,53938.50
2023-04-04T09:12:44.424Z,53912.66
2023-04-04T09:15:13.815Z,53936.50
2023-04-04T09:17:42.607Z,53934.50
2023-04-04T09:20:35.445Z,53928.56
2023-04-04T09:23:07.938Z,53888.78
2023-04-04T09:25:38.398Z,53922.59
2023-04-04T09:28:06.979Z,53924.56
2023-04-04T09:30:36.105Z,53900.72
2023-04-04T09:33:07.106Z,53896.75
2023-04-04T09:35:38.514Z,53882.81
2023-04-04T09:38:07.505Z,53916.63
2023-04-04T09:40:41.123Z,53922.59
2023-04-04T09:43:10.593Z,53904.69
2023-04-04T09:45:42.195Z,53888.78
2023-04-04T09:48:11.265Z,53890.78
2023-04-04T09:50:47.472Z,53880.84
2023-04-04T09:53:19.176Z,53892.75
2023-04-04T09:55:53.689Z,53868.91
2023-04-04T09:58:28.105Z,53868.91
2023-04-04T10:01:00.910Z,53854.97
2023-04-04T10:03:31.232Z,53854.97
2023-04-04T10:06:01.865Z,53866.91
2023-04-04T10:08:31.294Z,53862.94
2023-04-04T10:11:11.327Z,53833.13
2023-04-04T10:13:44.175Z,53872.88
2023-04-04T10:16:13.167Z,53845.03
2023-04-04T10:18:41.753Z,53854.97
2023-04-04T10:23:45.612Z,53849.03
2023-04-04T10:26:15.840Z,53805.28
2023-04-04T10:28:44.392Z,53825.16
2023-04-04T10:31:19.411Z,53849.03
2023-04-04T10:33:53.592Z,53829.13
2023-04-04T10:36:24.747Z,53849.03
2023-04-04T10:39:04.879Z,53833.13
2023-04-04T10:41:36.653Z,53821.19
2023-04-04T10:44:14.852Z,53849.03
2023-04-04T10:46:47.306Z,53856.97
2023-04-04T10:49:19.638Z,53791.34
2023-04-04T10:51:56.485Z,53787.38
2023-04-04T10:54:29.211Z,53803.28
2023-04-04T10:57:02.220Z,53793.34
2023-04-04T10:59:31.190Z,53813.22
2023-04-04T11:02:00.977Z,53781.41
2023-04-04T11:04:35.094Z,53793.34
2023-04-04T11:07:12.347Z,53739.66
2023-04-04T11:09:51.947Z,53787.38
2023-04-04T11:12:34.243Z,53781.41
2023-04-04T11:15:11.173Z,53761.53
2023-04-04T11:17:56.275Z,53779.44
2023-04-04T11:20:32.190Z,53769.50
2023-04-04T11:23:09.209Z,53779.44
2023-04-04T11:25:42.952Z,53741.66
2023-04-04T11:28:16.920Z,53753.59
2023-04-04T11:30:52.025Z,53765.50
2023-04-04T11:33:30.847Z,53731.72
2023-04-04T11:36:08.495Z,53735.69
2023-04-04T11:38:41.891Z,53701.88
2023-04-04T11:41:10.790Z,53737.69
2023-04-04T11:43:47.072Z,53703.88
2023-04-04T11:46:19.791Z,53731.72
2023-04-04T11:48:49.657Z,53717.78
2023-04-04T11:51:20.222Z,53666.09
2023-04-04T11:53:49.051Z,53729.72
2023-04-04T11:56:17.730Z,53695.94
2023-04-04T11:58:56.089Z,53695.94
2023-04-04T12:01:30.897Z,53709.84
2023-04-04T12:04:00.821Z,53686.00
2023-04-04T12:06:32.748Z,53680.03
2023-04-04T12:09:02.770Z,53701.88
2023-04-04T12:11:36.044Z,53701.88
2023-04-04T12:14:05.992Z,53674.06
2023-04-04T12:16:34.541Z,53666.09
2023-04-04T12:19:03.423Z,53668.09
2023-04-04T12:21:33.341Z,53674.06
2023-04-04T12:24:01.989Z,53654.19
2023-04-04T12:26:32.848Z,53660.13
2023-04-04T12:29:02.379Z,53644.22
2023-04-04T12:31:32.587Z,53660.13
2023-04-04T12:34:01.349Z,53640.25
2023-04-04T12:36:31.592Z,53632.31
2023-04-04T12:39:02.029Z,53606.47
2023-04-04T12:41:30.543Z,53578.63
2023-04-04T12:44:06.087Z,53568.69
2023-04-04T12:46:40.125Z,53526.94
2023-04-04T12:49:09.611Z,53526.94
2023-04-04T12:51:39.587Z,53515.00
2023-04-04T12:54:09.266Z,53513.03
2023-04-04T12:56:38.012Z,53536.88
2023-04-04T12:59:11.050Z,53459.34
2023-04-04T13:01:42.037Z,53455.38
2023-04-04T13:04:11.042Z,53431.50
2023-04-04T13:06:39.701Z,53465.31
2023-04-04T13:09:08.886Z,53439.47
2023-04-04T13:11:59.172Z,53433.50
2023-04-04T13:14:28.166Z,53485.19
2023-04-04T13:17:06.081Z,53435.47
2023-04-04T13:19:34.909Z,53413.63
2023-04-04T13:22:03.964Z,53397.72
2023-04-04T13:24:32.471Z,53389.75
2023-04-04T13:27:01.116Z,53407.66
2023-04-04T13:29:29.633Z,53409.63
2023-04-04T13:31:58.509Z,53399.69
2023-04-04T13:34:29.052Z,53375.84
2023-04-04T13:36:58.018Z,53352.00
2023-04-04T13:39:26.808Z,53363.91
2023-04-04T13:41:57.566Z,53359.94
2023-04-04T13:44:27.268Z,53357.94
2023-04-04T13:46:56.032Z,53353.97
2023-04-04T13:49:24.851Z,53371.88
2023-04-04T13:51:54.852Z,53375.84
2023-04-04T13:54:23.435Z,53363.91
2023-04-04T13:56:53.139Z,53336.09
2023-04-04T13:59:22.849Z,53395.72
2023-04-04T14:01:51.889Z,53389.75
2023-04-04T14:04:23.852Z,53401.69
2023-04-04T14:06:55.822Z,53391.75
2023-04-04T14:09:24.945Z,53373.84
2023-04-04T14:11:53.493Z,53405.66
2023-04-04T14:14:22.028Z,53397.72
2023-04-04T14:16:50.575Z,53411.63
2023-04-04T14:19:19.234Z,53411.63
2023-04-04T14:21:47.817Z,53411.63
2023-04-04T14:24:17.917Z,53431.50
2023-04-04T14:26:46.588Z,53463.31
2023-04-04T14:29:15.287Z,53461.31
2023-04-04T14:31:44.047Z,53403.69
2023-04-04T14:34:12.620Z,53427.53
2023-04-04T14:36:41.663Z,53455.38
2023-04-04T14:39:10.201Z,53459.34
2023-04-04T14:41:40.270Z,53481.22
2023-04-04T14:44:08.799Z,53515.00
2023-04-04T14:46:37.492Z,53507.06
2023-04-04T14:49:06.781Z,53489.16
2023-04-04T14:51:35.789Z,53513.03
2023-04-04T14:54:04.389Z,53515.00
2023-04-04T14:56:32.961Z,53518.97
2023-04-04T14:59:05.587Z,53513.03
2023-04-04T15:01:34.214Z,53511.03
2023-04-04T15:04:02.922Z,53538.88
2023-04-04T15:06:36.270Z,53538.88
2023-04-04T15:09:06.116Z,53495.13
2023-04-04T15:11:35.527Z,53532.91
2023-04-04T15:14:05.838Z,53522.97
2023-04-04T15:16:35.459Z,53530.91
2023-04-04T15:19:04.101Z,53538.88
2023-04-04T15:21:32.850Z,53554.78
2023-04-04T15:24:01.304Z,53554.78
2023-04-04T15:26:29.722Z,53540.84
2023-04-04T15:28:58.095Z,53566.69
2023-04-04T15:31:28.325Z,53588.56
2023-04-04T15:33:59.401Z,53550.78
2023-04-04T15:36:29.049Z,53550.78
2023-04-04T15:38:57.639Z,53554.78
2023-04-04T15:41:26.286Z,53546.81
2023-04-04T15:43:54.884Z,53566.69
2023-04-04T15:46:23.638Z,53572.66
2023-04-04T15:48:53.425Z,53564.72
2023-04-04T15:51:22.401Z,53544.81
2023-04-04T15:53:51.236Z,53550.78
2023-04-04T15:56:19.927Z,53536.88
2023-04-04T15:58:48.460Z,53534.88
2023-04-04T16:01:17.136Z,53548.81
2023-04-04T16:03:45.745Z,53526.94
2023-04-04T16:06:15.741Z,53546.81
2023-04-04T16:08:45.256Z,53558.75
2023-04-04T16:11:13.822Z,53574.66
2023-04-04T16:13:42.349Z,53538.88
2023-04-04T16:16:11.228Z,53544.81
2023-04-04T16:18:39.745Z,53568.69
2023-04-04T16:21:08.278Z,53546.81
2023-04-04T16:23:39.147Z,53568.69
2023-04-04T16:26:07.670Z,53576.63
2023-04-04T16:28:36.160Z,53566.69
2023-04-04T16:31:04.848Z,53570.69
2023-04-04T16:33:33.980Z,53582.59
2023-04-04T16:36:02.427Z,53600.50
2023-04-04T16:38:30.946Z,53606.47
2023-04-04T16:41:03.174Z,53584.59
2023-04-04T16:43:31.875Z,53628.31
2023-04-04T16:46:00.499Z,53626.34
2023-04-04T16:48:29.425Z,53632.31
2023-04-04T16:50:58.213Z,53626.34
2023-04-04T16:53:27.129Z,53610.44
2023-04-04T16:55:55.914Z,53588.56
2023-04-04T16:58:26.172Z,53606.47
2023-04-04T17:00:54.822Z,53622.38
2023-04-04T17:03:23.499Z,53634.28
2023-04-04T17:05:56.249Z,53630.31
2023-04-04T17:08:25.048Z,53622.38
2023-04-04T17:10:54.006Z,53626.34
2023-04-04T17:13:22.525Z,53616.41
2023-04-04T17:15:52.815Z,53644.22
2023-04-04T17:18:21.327Z,53610.44
2023-04-04T17:20:49.888Z,53632.31
2023-04-04T17:23:18.447Z,53652.19
2023-04-04T17:25:47.076Z,53654.19
2023-04-04T17:28:15.667Z,53670.09
2023-04-04T17:30:44.189Z,53652.19
2023-04-04T17:33:14.803Z,53612.44
2023-04-04T17:35:44.488Z,53684.00
2023-04-04T17:38:13.169Z,53711.84
2023-04-04T17:40:42.037Z,53674.06
2023-04-04T17:43:10.712Z,53680.03
2023-04-04T17:45:39.299Z,53721.78
2023-04-04T17:48:08.170Z,53666.09
2023-04-04T17:50:38.263Z,53678.03
2023-04-04T17:53:07.508Z,53689.97
2023-04-04T17:55:36.882Z,53701.88
2023-04-04T17:58:06.104Z,53687.97
2023-04-04T18:00:35.105Z,53713.81
2023-04-04T18:03:04.495Z,53717.78
2023-04-04T18:05:34.515Z,53686.00
2023-04-04T18:08:05.225Z,53670.09
2023-04-04T18:10:36.506Z,53711.84
2023-04-04T18:13:05.417Z,53674.06
2023-04-04T18:15:34.734Z,53697.91
2023-04-04T18:18:03.452Z,53729.72
2023-04-04T18:20:42.400Z,53713.81
2023-04-04T18:23:12.483Z,53701.88
2023-04-04T18:25:41.305Z,53672.06
2023-04-04T18:28:10.141Z,53725.75
2023-04-04T18:30:39.250Z,53741.66
2023-04-04T18:33:08.059Z,53733.69
2023-04-04T18:35:36.727Z,53727.75
2023-04-04T18:38:05.361Z,53731.72
2023-04-04T18:40:35.404Z,53745.63
2023-04-04T18:43:04.552Z,53759.56
2023-04-04T18:45:39.950Z,53727.75
2023-04-04T18:48:09.642Z,53733.69
2023-04-04T18:50:38.633Z,53767.50
2023-04-04T18:53:07.995Z,53713.81
2023-04-04T18:55:38.310Z,53709.84
2023-04-04T18:58:07.041Z,53751.59
2023-04-04T19:00:35.769Z,53737.69
2023-04-04T19:03:04.792Z,53755.56
2023-04-04T19:05:35.106Z,53757.56
2023-04-04T19:08:06.701Z,53771.47
2023-04-04T19:10:38.184Z,53731.72
2023-04-04T19:13:06.958Z,53715.81
2023-04-04T19:15:36.138Z,53779.44
2023-04-04T19:18:05.396Z,53771.47
2023-04-04T19:20:33.989Z,53733.69
2023-04-04T19:23:02.491Z,53777.44
2023-04-04T19:25:31.027Z,53789.38
2023-04-04T19:28:01.116Z,53759.56
2023-04-04T19:30:43.901Z,53801.31
2023-04-04T19:33:13.796Z,53811.25
2023-04-04T19:35:54.746Z,53793.34
2023-04-04T19:38:29.266Z,53825.16
2023-04-04T19:40:59.489Z,53809.25
2023-04-04T19:43:31.009Z,53815.22
2023-04-04T19:46:11.861Z,53868.91
2023-04-04T19:48:46.209Z,53854.97
2023-04-04T19:51:37.971Z,53864.94
2023-04-04T19:54:08.969Z,53862.94
2023-04-04T19:56:37.615Z,53876.84
2023-04-04T19:59:10.436Z,53888.78
2023-04-04T20:01:44.587Z,53882.81
2023-04-04T20:04:19.282Z,53870.88
2023-04-04T20:06:49.219Z,53880.84
2023-04-04T20:09:34.919Z,53896.75
2023-04-04T20:12:03.635Z,53914.63
2023-04-04T20:14:33.606Z,53884.81
2023-04-04T20:17:02.432Z,53900.72
2023-04-04T20:19:31.353Z,53908.66
2023-04-04T20:22:00.389Z,53912.66
2023-04-04T20:24:29.424Z,53916.63
2023-04-04T20:26:59.748Z,53928.56
2023-04-04T20:29:30.150Z,53928.56
2023-04-04T20:32:02.008Z,53920.59
2023-04-04T20:34:38.969Z,53948.44
2023-04-04T20:37:10.605Z,53960.38
2023-04-04T20:39:47.218Z,53988.19
2023-04-04T20:42:32.321Z,53994.16
2023-04-04T20:45:08.503Z,53972.28
2023-04-04T20:47:44.015Z,54002.13
2023-04-04T20:50:43.946Z,53990.19
2023-04-04T20:53:18.719Z,53968.31
2023-04-04T20:55:47.489Z,54000.13
2023-04-04T20:58:28.476Z,53998.16
2023-04-04T21:00:58.784Z,54018.03
2023-04-04T21:03:41.723Z,53996.16
2023-04-04T21:06:13.473Z,54027.97
2023-04-04T21:08:47.472Z,54024.00
2023-04-04T21:11:23.272Z,54012.06
2023-04-04T21:13:51.779Z,54039.91
2023-04-04T21:16:23.772Z,54020.00
2023-04-04T21:18:58.425Z,54047.84
2023-04-04T21:21:27.756Z,54000.13
2023-04-04T21:23:57.666Z,54065.75
2023-04-04T21:26:36.602Z,54012.06
2023-04-04T21:29:07.087Z,54053.81
2023-04-04T21:31:38.657Z,54043.88
2023-04-04T21:34:13.995Z,54061.78
2023-04-04T21:36:42.944Z,54024.00
2023-04-04T21:39:14.149Z,54065.75
2023-04-04T21:41:45.113Z,54073.69
2023-04-04T21:44:13.616Z,54041.88
2023-04-04T21:46:42.856Z,54087.63
2023-04-04T21:49:12.796Z,54085.63
2023-04-04T21:51:41.254Z,54069.72
2023-04-04T21:54:10.035Z,54059.78
2023-04-04T21:56:38.810Z,54059.78
2023-04-04T21:59:09.324Z,54063.75
2023-04-04T22:01:38.381Z,54087.63
2023-04-04T22:04:07.091Z,54087.63
2023-04-04T22:06:36.820Z,54079.66
2023-04-04T22:09:06.651Z,54101.53
2023-04-04T22:11:38.914Z,54079.66
2023-04-04T22:14:08.181Z,54099.56
2023-04-04T22:16:39.828Z,54073.69
2023-04-04T22:19:11.507Z,54083.66
2023-04-04T22:21:47.013Z,54089.59
2023-04-04T22:24:18.236Z,54123.41
2023-04-04T22:26:47.391Z,54117.44
2023-04-04T22:29:16.074Z,54117.44
2023-04-04T22:31:44.708Z,54123.41
2023-04-04T22:34:14.996Z,54119.44
2023-04-04T22:36:45.109Z,54161.19
2023-04-04T22:39:16.125Z,54115.47
2023-04-04T22:41:45.666Z,54155.22
2023-04-04T22:44:14.007Z,54149.25
2023-04-04T22:46:42.412Z,54121.41
2023-04-04T22:49:10.930Z,54157.22
2023-04-04T22:51:45.423Z,54155.22
2023-04-04T22:54:17.025Z,54222.84
2023-04-04T22:56:45.840Z,54198.97
2023-04-04T22:59:14.505Z,54165.16
2023-04-04T23:01:42.970Z,54173.13
2023-04-04T23:04:11.793Z,54210.91
2023-04-04T23:06:40.183Z,54208.91
2023-04-04T23:09:09.051Z,54210.91
2023-04-04T23:11:39.857Z,54183.06
2023-04-04T23:14:09.625Z,54258.63
2023-04-04T23:16:38.484Z,54256.63
2023-04-04T23:19:07.672Z,54248.69
2023-04-04T23:21:36.738Z,54242.72
2023-04-04T23:24:05.365Z,54246.69
2023-04-04T23:26:33.760Z,54276.53
2023-04-04T23:29:03.594Z,54264.59
2023-04-04T23:31:32.059Z,54262.59
2023-04-04T23:34:00.850Z,54282.50
2023-04-04T23:36:29.340Z,54280.50
2023-04-04T23:38:57.710Z,54262.59
2023-04-04T23:41:26.764Z,54258.63
2023-04-04T23:43:55.098Z,54284.47
2023-04-04T23:46:25.030Z,54262.59
2023-04-04T23:48:53.405Z,54274.53
2023-04-04T23:51:22.208Z,54318.28
2023-04-04T23:53:50.520Z,54300.38
2023-04-04T23:56:18.908Z,54260.63
2023-04-04T23:58:47.255Z,54322.25
